Terminal Aerodrome Forecast
Issued by NWS

Home | Current Version | Previous Version | Text Only | Print | Product List | Glossary On
Versions: 1 2 3 4 5 6 7 8 9 10 11 12 13 14 15
270
FTUS46 KSEW 130533
TAFBLI
TAF
KBLI 130533Z 1306/1406 16008KT P6SM SCT030 BKN060
     FM130900 16008KT P6SM SCT025 BKN045
      TEMPO 1309/1313 -SHRA BKN025 OVC045
     FM132000 15012G22KT P6SM -RA OVC040
     FM140200 17012G22KT 4SM -RA SCT010 OVC020=

USA.gov is the U.S. government's official web portal to all federal, state and local government web resources and services.